Time;durP1;ratioP1;P1;durP2;ratioP2;P2;SDS_P1;SDS_P2;PMS_P1;PMS_P2;Temp;Humidity;BMP_temperature;BMP_pressure;BME280_temperature;BME280_humidity;BME280_pressure;Samples;Min_cycle;Max_cycle;Signal;HPM_P1;HPM_P2
2021/11/18 00:00:13;;;;;;;20.20;4.88;;;;;;;8.21;82.06;100850.97;5093321;28;20034;-79
2021/11/18 00:02:39;;;;;;;24.50;5.10;;;;;;;8.27;82.30;100816.50;5092178;28;20503;-78
2021/11/18 00:05:05;;;;;;;19.13;4.65;;;;;;;8.32;81.99;100824.72;5093174;28;20028;-78
2021/11/18 00:07:31;;;;;;;23.20;5.68;;;;;;;8.38;81.80;100820.97;5057774;28;20481;-78
2021/11/18 00:09:56;;;;;;;27.65;7.78;;;;;;;8.39;81.59;100819.09;5084486;28;20035;-78
2021/11/18 00:12:23;;;;;;;21.05;4.75;;;;;;;8.42;81.97;100830.25;5075524;28;20028;-77
2021/11/18 00:14:48;;;;;;;20.60;4.03;;;;;;;8.44;81.97;100828.09;5071393;28;20071;-77
2021/11/18 00:17:14;;;;;;;27.27;6.07;;;;;;;8.44;82.35;100821.84;5085663;28;20039;-77
2021/11/18 00:19:39;;;;;;;33.90;8.63;;;;;;;8.50;82.53;100822.72;5092100;28;20365;-77
2021/11/18 00:22:04;;;;;;;15.85;3.28;;;;;;;8.54;82.36;100805.63;5080098;28;20424;-77
2021/11/18 00:24:31;;;;;;;24.27;5.93;;;;;;;8.55;82.50;100799.13;5054626;28;20024;-80
2021/11/18 00:26:57;;;;;;;15.32;3.05;;;;;;;8.57;82.85;100820.59;5072462;28;20029;-78
2021/11/18 00:29:22;;;;;;;15.45;3.17;;;;;;;8.61;83.00;100816.28;5072853;28;20028;-78
2021/11/18 00:31:48;;;;;;;24.88;4.47;;;;;;;8.64;82.96;100802.16;5071393;28;20101;-77
2021/11/18 00:34:13;;;;;;;14.55;3.95;;;;;;;8.58;82.96;100823.03;5072417;28;20040;-78
2021/11/18 00:36:39;;;;;;;19.38;4.40;;;;;;;8.53;83.05;100809.41;5072519;28;20036;-78
2021/11/18 00:39:05;;;;;;;17.85;4.13;;;;;;;8.48;83.20;100801.22;5071283;28;20079;-78
2021/11/18 00:41:31;;;;;;;13.15;3.13;;;;;;;8.44;83.46;100811.78;5071320;28;20041;-78
2021/11/18 00:43:58;;;;;;;19.63;3.22;;;;;;;8.41;83.98;100828.63;5071221;28;20012;-78
2021/11/18 00:46:24;;;;;;;10.45;1.73;;;;;;;8.45;84.12;100842.50;5075551;28;20435;-77
2021/11/18 00:48:50;;;;;;;13.90;2.10;;;;;;;8.48;84.35;100833.81;5091309;28;20020;-77
2021/11/18 00:51:17;;;;;;;14.70;2.88;;;;;;;8.52;84.29;100817.84;5089945;28;20028;-76
2021/11/18 00:53:48;;;;;;;14.68;2.78;;;;;;;8.57;84.74;100829.56;5092422;28;20028;-77
2021/11/18 00:56:13;;;;;;;12.10;2.65;;;;;;;8.60;84.69;100825.53;5091241;28;20047;-76
2021/11/18 00:58:39;;;;;;;15.55;1.90;;;;;;;8.65;84.31;100839.16;5091343;28;20028;-77
2021/11/18 01:01:04;;;;;;;11.18;2.38;;;;;;;8.69;83.94;100823.94;5090321;28;20462;-77
2021/11/18 01:03:30;;;;;;;17.88;3.45;;;;;;;8.68;83.87;100832.38;5071034;28;20066;-77
2021/11/18 01:05:56;;;;;;;12.55;2.55;;;;;;;8.70;83.91;100836.44;5072203;28;20089;-77
2021/11/18 01:08:21;;;;;;;19.52;2.72;;;;;;;8.77;83.55;100830.81;5090825;28;20477;-77
2021/11/18 01:10:50;;;;;;;13.50;2.70;;;;;;;8.79;83.24;100834.09;5087408;28;20064;-77
2021/11/18 01:13:15;;;;;;;16.35;3.00;;;;;;;8.81;83.10;100878.97;5072166;28;20028;-77
2021/11/18 01:15:42;;;;;;;12.00;2.97;;;;;;;8.85;82.77;100827.59;5070735;28;20055;-77
2021/11/18 01:18:08;;;;;;;14.15;2.72;;;;;;;8.88;82.93;100844.19;5071957;28;20028;-77
2021/11/18 01:20:33;;;;;;;7.32;1.25;;;;;;;8.90;82.54;100852.13;5071163;28;20031;-77
2021/11/18 01:22:59;;;;;;;15.32;3.85;;;;;;;8.92;81.88;100840.97;5086599;28;20041;-77
2021/11/18 01:25:25;;;;;;;12.52;2.38;;;;;;;8.94;81.59;100841.53;5090040;28;20028;-77
2021/11/18 01:27:50;;;;;;;15.85;2.30;;;;;;;8.94;81.32;100841.53;5082290;28;20469;-77
2021/11/18 01:30:20;;;;;;;19.33;2.50;;;;;;;8.92;80.88;100843.69;5092139;28;20034;-77
2021/11/18 01:32:46;;;;;;;11.05;2.22;;;;;;;8.91;80.65;100836.63;5090965;28;20032;-76
2021/11/18 01:35:11;;;;;;;14.00;2.08;;;;;;;8.85;80.60;100838.47;5092080;28;20085;-77
2021/11/18 01:37:36;;;;;;;8.25;1.23;;;;;;;8.83;80.72;100841.44;5090932;28;20485;-77
2021/11/18 01:40:04;;;;;;;4.65;1.23;;;;;;;8.83;80.47;100856.94;5088961;28;20035;-77
2021/11/18 01:42:30;;;;;;;17.55;2.97;;;;;;;8.80;80.14;100830.28;5073201;28;20085;-77
2021/11/18 01:44:56;;;;;;;12.60;2.22;;;;;;;8.81;80.01;100837.34;5090829;28;20028;-77
2021/11/18 01:47:22;;;;;;;9.88;2.67;;;;;;;8.84;79.40;100825.97;5080292;28;20024;-77
2021/11/18 01:49:48;;;;;;;16.33;2.15;;;;;;;8.87;79.95;100830.88;5071820;28;20508;-77
2021/11/18 01:52:14;;;;;;;16.50;2.55;;;;;;;8.91;79.90;100847.50;5071603;28;20036;-77
2021/11/18 01:54:41;;;;;;;10.18;2.70;;;;;;;8.84;79.95;100828.69;5054208;28;20052;-78
2021/11/18 01:57:08;;;;;;;6.32;1.67;;;;;;;8.77;80.01;100858.81;5077582;28;20062;-77
2021/11/18 01:59:35;;;;;;;7.80;2.50;;;;;;;8.75;79.10;100877.25;5090719;28;20016;-78
2021/11/18 02:02:01;;;;;;;10.63;2.47;;;;;;;8.74;78.56;100848.44;5089623;28;20172;-77
2021/11/18 02:04:28;;;;;;;4.57;1.30;;;;;;;8.72;77.97;100831.56;5075763;28;20218;-77
2021/11/18 02:07:13;;;;;;;8.52;1.95;;;;;;;8.70;77.59;100850.03;5088335;28;20059;-77
2021/11/18 02:09:41;;;;;;;10.15;1.98;;;;;;;8.69;77.69;100834.00;5075055;28;20048;-77
2021/11/18 02:12:14;;;;;;;14.43;2.05;;;;;;;8.69;77.41;100853.03;5081478;28;20389;-77
2021/11/18 02:14:40;;;;;;;10.38;2.00;;;;;;;8.69;77.69;100842.97;5094149;28;20040;-77
2021/11/18 02:17:06;;;;;;;7.90;2.10;;;;;;;8.73;78.27;100863.13;5094213;28;20020;-77
2021/11/18 02:19:40;;;;;;;11.13;2.35;;;;;;;8.74;78.29;100866.66;5077656;28;20044;-76
2021/11/18 02:22:05;;;;;;;11.60;2.55;;;;;;;8.71;77.67;100859.03;5087066;28;20504;-76
2021/11/18 02:24:34;;;;;;;15.50;2.72;;;;;;;8.68;77.85;100844.06;5075017;28;20029;-77
2021/11/18 02:26:59;;;;;;;7.45;2.05;;;;;;;8.66;78.34;100871.50;5079752;28;20569;-76
2021/11/18 02:29:25;;;;;;;8.88;2.30;;;;;;;8.66;78.12;100857.91;5095385;28;20032;-77
2021/11/18 02:31:59;;;;;;;11.15;2.03;;;;;;;8.65;77.98;100855.47;5090495;28;20052;-77
2021/11/18 02:34:55;;;;;;;13.07;1.85;;;;;;;8.62;77.91;100845.06;5074806;28;20112;-77
2021/11/18 02:37:20;;;;;;;14.75;2.67;;;;;;;8.60;78.03;100844.53;5074052;28;20059;-77
2021/11/18 02:39:46;;;;;;;12.27;3.05;;;;;;;8.59;78.23;100861.91;5092843;28;20070;-77
2021/11/18 02:42:11;;;;;;;12.52;2.25;;;;;;;8.60;78.25;100849.97;5075933;28;20024;-77
2021/11/18 02:44:37;;;;;;;8.77;1.70;;;;;;;8.61;78.31;100830.69;5095216;28;20016;-77
2021/11/18 02:47:06;;;;;;;14.40;2.47;;;;;;;8.61;77.76;100843.44;5087675;28;20034;-77
2021/11/18 02:49:32;;;;;;;8.68;2.20;;;;;;;8.61;78.08;100849.69;5057260;28;20032;-77
2021/11/18 02:52:00;;;;;;;9.85;1.85;;;;;;;8.61;77.83;100849.69;5077304;28;20024;-77
2021/11/18 02:54:25;;;;;;;11.15;2.05;;;;;;;8.61;77.53;100846.16;5093706;28;20377;-77
2021/11/18 02:56:52;;;;;;;9.98;2.50;;;;;;;8.59;77.92;100861.91;5090614;28;20035;-77
2021/11/18 02:59:19;;;;;;;11.52;1.92;;;;;;;8.58;78.05;100835.81;5074766;28;20393;-77
2021/11/18 03:01:46;;;;;;;12.18;2.45;;;;;;;8.59;77.84;100856.47;5073091;28;20385;-78
2021/11/18 03:04:12;;;;;;;13.38;1.98;;;;;;;8.60;78.11;100849.97;5073260;28;20020;-78
2021/11/18 03:06:37;;;;;;;6.25;1.70;;;;;;;8.58;77.40;100866.53;5059838;28;20028;-77
2021/11/18 03:09:04;;;;;;;8.10;1.77;;;;;;;8.56;77.06;100859.72;5074312;28;20074;-78
2021/11/18 03:11:29;;;;;;;9.45;1.65;;;;;;;8.55;77.21;100861.63;5072874;28;20082;-78
2021/11/18 03:13:55;;;;;;;9.85;1.50;;;;;;;8.56;76.73;100857.00;5093598;28;20024;-77
2021/11/18 03:16:21;;;;;;;9.77;2.45;;;;;;;8.57;76.68;100842.34;5092242;28;20051;-77
2021/11/18 03:18:46;;;;;;;9.30;1.98;;;;;;;8.59;76.75;100867.34;5092235;28;20055;-78
2021/11/18 03:21:14;;;;;;;9.10;2.85;;;;;;;8.58;76.89;100887.44;5094208;28;20027;-77
2021/11/18 03:23:41;;;;;;;18.40;2.55;;;;;;;8.59;77.05;100848.31;5089681;28;20039;-77
2021/11/18 03:26:07;;;;;;;11.07;2.00;;;;;;;8.60;76.79;100849.97;5072763;28;20021;-77
2021/11/18 03:28:34;;;;;;;12.38;2.20;;;;;;;8.57;76.87;100855.94;5085383;28;20411;-77
2021/11/18 03:31:00;;;;;;;16.17;3.47;;;;;;;8.55;76.99;100855.38;5094160;28;20035;-78
2021/11/18 03:33:30;;;;;;;13.50;2.42;;;;;;;8.56;77.32;100851.56;5076980;28;20112;-77
2021/11/18 03:35:56;;;;;;;16.90;2.67;;;;;;;8.56;77.08;100857.00;5073979;28;20035;-76
2021/11/18 03:38:22;;;;;;;13.43;2.78;;;;;;;8.58;77.19;100871.97;5072339;28;20028;-77
2021/11/18 03:40:50;;;;;;;12.15;2.13;;;;;;;8.58;77.29;100847.50;5072398;28;20400;-77
2021/11/18 03:43:20;;;;;;;8.20;1.75;;;;;;;8.59;77.21;100848.31;5085180;28;20020;-77
2021/11/18 03:45:45;;;;;;;9.18;1.83;;;;;;;8.59;77.30;100875.50;5093844;28;20047;-77
2021/11/18 03:48:15;;;;;;;10.18;2.10;;;;;;;8.61;76.71;100881.50;5080941;28;20376;-77
2021/11/18 03:50:41;;;;;;;9.10;1.88;;;;;;;8.63;76.02;100861.13;5073499;28;20028;-77
2021/11/18 03:53:08;;;;;;;5.15;1.35;;;;;;;8.64;75.86;100862.78;5084386;28;20106;-77
2021/11/18 03:55:33;;;;;;;11.02;2.10;;;;;;;8.63;75.85;100871.19;5093585;28;20055;-77
2021/11/18 03:57:58;;;;;;;16.55;2.03;;;;;;;8.63;75.89;100858.41;5084344;28;20398;-78
2021/11/18 04:00:26;;;;;;;10.38;2.00;;;;;;;8.61;76.20;100886.94;5071974;28;20027;-77
2021/11/18 04:02:52;;;;;;;14.93;2.25;;;;;;;8.61;75.84;100879.59;5072146;28;20440;-77
2021/11/18 04:05:18;;;;;;;9.85;2.00;;;;;;;8.62;75.74;100873.09;5073260;28;20024;-77
2021/11/18 04:07:44;;;;;;;15.00;1.60;;;;;;;8.65;75.51;100877.19;5078657;28;20388;-77
2021/11/18 04:10:15;;;;;;;12.32;1.88;;;;;;;8.66;75.45;100886.97;5093600;28;20028;-77
2021/11/18 04:12:41;;;;;;;14.00;2.53;;;;;;;8.66;75.31;100881.53;5091089;28;20032;-77
2021/11/18 04:15:07;;;;;;;7.32;1.95;;;;;;;8.66;75.53;100876.13;5093252;28;20048;-77
2021/11/18 04:17:33;;;;;;;10.18;1.98;;;;;;;8.68;75.49;100875.88;5086181;28;20056;-77
2021/11/18 04:19:58;;;;;;;18.35;2.55;;;;;;;8.70;75.56;100890.81;5071937;28;20405;-76
2021/11/18 04:22:24;;;;;;;9.55;2.08;;;;;;;8.69;75.53;100872.88;5076578;28;20326;-77
2021/11/18 04:24:49;;;;;;;9.60;1.67;;;;;;;8.70;74.92;100879.94;5093087;28;20385;-77
2021/11/18 04:27:15;;;;;;;11.52;2.50;;;;;;;8.70;74.79;100879.94;5089670;28;20024;-77
2021/11/18 04:29:40;;;;;;;11.05;1.88;;;;;;;8.71;74.52;100881.59;5083487;28;20040;-78
2021/11/18 04:32:15;;;;;;;12.13;2.00;;;;;;;8.74;74.76;100896.56;5071809;28;20035;-78
2021/11/18 04:34:41;;;;;;;12.02;2.17;;;;;;;8.74;74.49;100900.09;5072592;28;20033;-77
2021/11/18 04:37:06;;;;;;;11.18;2.17;;;;;;;8.77;74.83;100894.13;5072658;28;20039;-78
2021/11/18 04:39:32;;;;;;;8.90;1.88;;;;;;;8.79;74.48;100927.34;5071496;28;20024;-77
2021/11/18 04:41:57;;;;;;;9.45;1.45;;;;;;;8.79;74.18;100911.03;5072557;28;20028;-78
2021/11/18 04:44:23;;;;;;;7.38;1.70;;;;;;;8.79;74.20;100900.16;5071056;28;20478;-78
2021/11/18 04:46:48;;;;;;;17.25;2.05;;;;;;;8.81;74.16;100884.41;5071070;28;20466;-78
2021/11/18 04:49:14;;;;;;;11.55;2.80;;;;;;;8.80;74.47;100892.81;5089518;28;20024;-77
2021/11/18 04:51:41;;;;;;;4.75;1.75;;;;;;;8.81;74.41;100895.28;5091299;28;20024;-77
2021/11/18 04:54:07;;;;;;;11.82;2.83;;;;;;;8.83;74.20;100895.81;5089939;28;20497;-77
2021/11/18 04:56:33;;;;;;;10.98;2.72;;;;;;;8.83;74.61;100884.94;5088200;28;20020;-77
2021/11/18 04:58:59;;;;;;;12.80;2.58;;;;;;;8.82;74.96;100871.63;5071186;28;20485;-77
2021/11/18 05:01:24;;;;;;;16.67;2.42;;;;;;;8.82;75.08;100883.31;5072310;28;20102;-77
2021/11/18 05:03:51;;;;;;;14.30;2.88;;;;;;;8.81;75.31;100881.69;5084035;28;20489;-77
2021/11/18 05:06:16;;;;;;;12.35;2.40;;;;;;;8.83;75.28;100895.00;5074435;28;20028;-77
2021/11/18 05:08:42;;;;;;;15.15;2.53;;;;;;;8.82;74.91;100909.69;5091458;28;20020;-77
2021/11/18 05:11:08;;;;;;;13.73;2.88;;;;;;;8.84;74.86;100935.53;5092442;28;20027;-77
2021/11/18 05:13:33;;;;;;;9.48;1.30;;;;;;;8.86;74.05;100927.09;5091297;28;20059;-77
2021/11/18 05:16:00;;;;;;;8.77;2.10;;;;;;;8.88;73.60;100912.19;5092160;28;20055;-76
2021/11/18 05:18:27;;;;;;;6.82;1.45;;;;;;;8.91;73.88;100929.06;5090057;28;20035;-77
2021/11/18 05:20:52;;;;;;;13.65;2.38;;;;;;;8.88;74.16;100919.50;5090953;28;20030;-77
2021/11/18 05:23:18;;;;;;;14.73;3.20;;;;;;;8.87;74.03;100924.13;5083304;28;20382;-77
2021/11/18 05:25:43;;;;;;;9.63;2.15;;;;;;;8.86;74.49;100910.78;5070681;28;20485;-77
2021/11/18 05:28:09;;;;;;;11.88;3.28;;;;;;;8.85;74.78;100942.59;5073275;28;20426;-77
2021/11/18 05:30:35;;;;;;;7.82;1.95;;;;;;;8.87;74.05;100945.06;5072960;28;20034;-77
2021/11/18 05:33:03;;;;;;;13.35;3.33;;;;;;;8.88;73.89;100941.28;5090160;28;20036;-77
2021/11/18 05:35:29;;;;;;;10.80;3.15;;;;;;;8.91;73.56;100950.81;5092153;28;20056;-76
2021/11/18 05:37:54;;;;;;;12.48;2.25;;;;;;;8.89;73.19;100949.19;5091001;28;20050;-77
2021/11/18 05:40:20;;;;;;;12.73;2.08;;;;;;;8.92;73.04;100949.72;5095580;28;20027;-78
2021/11/18 05:42:47;;;;;;;12.55;2.42;;;;;;;8.90;72.99;100971.75;5093551;28;20388;-77
2021/11/18 05:45:15;;;;;;;14.00;2.38;;;;;;;8.86;72.88;100955.09;5096209;28;20058;-77
2021/11/18 05:47:41;;;;;;;7.72;2.08;;;;;;;8.85;73.19;100958.91;5092757;28;20036;-76
2021/11/18 05:50:07;;;;;;;13.40;1.92;;;;;;;8.85;72.93;100950.75;5074473;28;20111;-76
2021/11/18 05:52:34;;;;;;;10.85;2.00;;;;;;;8.83;72.77;100961.06;5074843;28;20024;-77
2021/11/18 05:54:59;;;;;;;9.60;2.65;;;;;;;8.85;72.99;100945.31;5095706;28;20481;-77
2021/11/18 05:57:26;;;;;;;10.02;1.92;;;;;;;8.84;72.77;100932.00;5093686;28;20039;-77
2021/11/18 05:59:51;;;;;;;9.73;1.70;;;;;;;8.83;72.98;100939.31;5095706;28;20477;-77
2021/11/18 06:02:17;;;;;;;10.88;2.05;;;;;;;8.84;73.04;100935.53;5077532;28;20024;-77
2021/11/18 06:04:42;;;;;;;13.93;2.72;;;;;;;8.86;73.35;100940.69;5074738;28;20427;-77
2021/11/18 06:07:08;;;;;;;14.55;2.92;;;;;;;8.85;73.10;100942.59;5074044;28;20035;-77
2021/11/18 06:09:33;;;;;;;11.45;2.03;;;;;;;8.85;73.23;100937.16;5087061;28;20469;-77
2021/11/18 06:11:59;;;;;;;7.88;2.30;;;;;;;8.85;72.97;100949.94;5074030;28;20082;-77
2021/11/18 06:14:24;;;;;;;6.47;1.88;;;;;;;8.88;72.62;100933.94;5074555;28;20043;-77
2021/11/18 06:16:49;;;;;;;14.13;1.50;;;;;;;8.89;72.49;100935.59;5075408;28;20474;-77
2021/11/18 06:19:15;;;;;;;10.43;2.03;;;;;;;8.89;72.03;100949.19;5089341;28;20055;-77
2021/11/18 06:21:44;;;;;;;14.45;1.55;;;;;;;8.91;71.93;100961.69;5095281;28;20035;-77
2021/11/18 06:24:10;;;;;;;6.82;1.63;;;;;;;8.92;71.73;100952.44;5080820;28;20031;-77
2021/11/18 06:26:35;;;;;;;12.00;2.15;;;;;;;8.88;71.48;100958.41;5074864;28;20028;-77
2021/11/18 06:29:01;;;;;;;16.85;3.03;;;;;;;8.90;71.69;100966.31;5086558;28;20491;-77
2021/11/18 06:31:26;;;;;;;14.25;1.85;;;;;;;8.87;72.14;100967.66;5095052;28;20031;-76
2021/11/18 06:33:52;;;;;;;11.52;2.42;;;;;;;8.85;71.81;100964.34;5082253;28;20036;-77
2021/11/18 06:36:17;;;;;;;8.73;2.05;;;;;;;8.85;72.08;100971.69;5074741;28;20121;-77
2021/11/18 06:38:44;;;;;;;13.20;2.38;;;;;;;8.86;72.41;100959.72;5074398;28;20035;-77
2021/11/18 06:41:10;;;;;;;8.80;1.90;;;;;;;8.90;72.71;100955.44;5074632;28;20035;-78
2021/11/18 06:43:36;;;;;;;8.57;2.20;;;;;;;8.94;72.95;100972.03;5064792;28;20071;-77
2021/11/18 06:46:01;;;;;;;11.88;1.98;;;;;;;8.99;73.18;100974.81;5094850;28;20024;-77
2021/11/18 06:48:30;;;;;;;12.07;2.55;;;;;;;9.03;73.19;100978.63;5086690;28;20428;-77
2021/11/18 06:50:59;;;;;;;12.05;1.88;;;;;;;9.04;73.64;100991.19;5073301;28;20039;-77
2021/11/18 06:53:25;;;;;;;9.05;1.80;;;;;;;9.07;73.48;100969.72;5074608;28;20111;-77
2021/11/18 06:55:51;;;;;;;8.68;2.42;;;;;;;9.09;73.21;100978.44;5074485;28;20308;-76
2021/11/18 06:58:16;;;;;;;8.15;1.75;;;;;;;9.12;73.06;100996.13;5075072;28;20035;-76
2021/11/18 07:00:41;;;;;;;10.02;1.92;;;;;;;9.14;72.83;100990.44;5056363;28;20351;-77
2021/11/18 07:03:08;;;;;;;10.48;1.80;;;;;;;9.13;72.71;100970.56;5074408;28;20029;-77
2021/11/18 07:05:36;;;;;;;7.43;1.65;;;;;;;9.12;72.38;100963.50;5074477;28;20080;-76
2021/11/18 07:08:03;;;;;;;6.72;1.38;;;;;;;9.12;72.09;100977.09;5076584;28;20036;-77
2021/11/18 07:10:28;;;;;;;6.72;1.60;;;;;;;9.13;72.07;100981.44;5093398;28;20085;-77
2021/11/18 07:12:54;;;;;;;8.20;2.05;;;;;;;9.15;71.82;100968.41;5091929;28;20024;-76
2021/11/18 07:15:20;;;;;;;15.23;3.33;;;;;;;9.15;72.14;100968.41;5092865;28;20059;-78
2021/11/18 07:17:45;;;;;;;6.93;1.60;;;;;;;9.15;72.25;100962.97;5092309;28;20028;-78
2021/11/18 07:20:11;;;;;;;7.70;1.60;;;;;;;9.16;72.31;100986.38;5056269;28;20028;-77
2021/11/18 07:22:37;;;;;;;9.05;1.65;;;;;;;9.16;72.57;100980.94;5073658;28;20023;-77
2021/11/18 07:25:04;;;;;;;13.13;2.90;;;;;;;9.17;72.34;100995.38;5090132;28;20028;-77
2021/11/18 07:27:29;;;;;;;13.82;3.92;;;;;;;9.18;72.46;101011.41;5091739;28;20020;-77
2021/11/18 07:29:54;;;;;;;12.85;2.15;;;;;;;9.19;72.32;101018.50;5092952;28;20436;-77
2021/11/18 07:32:20;;;;;;;12.80;2.03;;;;;;;9.20;72.06;101009.25;5093992;28;20028;-77
2021/11/18 07:34:45;;;;;;;7.22;2.13;;;;;;;9.22;71.72;101012.56;5093043;28;20542;-77
2021/11/18 07:37:11;;;;;;;8.93;1.58;;;;;;;9.24;71.75;100994.06;5092634;28;20028;-77
2021/11/18 07:39:36;;;;;;;9.57;2.00;;;;;;;9.26;71.47;100986.47;5092582;28;20036;-77
2021/11/18 07:42:02;;;;;;;11.00;2.72;;;;;;;9.29;71.29;100974.25;5073092;28;20020;-77
2021/11/18 07:44:27;;;;;;;10.35;2.67;;;;;;;9.31;71.58;100972.09;5085024;28;20024;-77
2021/11/18 07:46:52;;;;;;;13.88;2.95;;;;;;;9.32;71.55;101001.75;5092516;28;20023;-77
2021/11/18 07:49:18;;;;;;;8.38;2.30;;;;;;;9.34;71.94;101005.03;5091290;28;20024;-77
2021/11/18 07:51:44;;;;;;;10.93;2.42;;;;;;;9.35;72.22;101000.41;5092492;28;20504;-77
2021/11/18 07:54:11;;;;;;;7.90;1.48;;;;;;;9.38;72.35;101004.50;5090090;28;20162;-77
2021/11/18 07:56:37;;;;;;;8.00;1.75;;;;;;;9.38;72.51;100989.00;5077592;28;20108;-77
2021/11/18 07:59:04;;;;;;;12.52;1.90;;;;;;;9.39;72.39;101004.25;5081711;28;20047;-77
2021/11/18 08:01:29;;;;;;;17.70;2.10;;;;;;;9.40;72.54;100992.28;5092579;28;20027;-77
2021/11/18 08:03:55;;;;;;;10.23;2.15;;;;;;;9.43;72.32;100993.66;5092292;28;20024;-76
2021/11/18 08:06:22;;;;;;;10.32;2.67;;;;;;;9.44;72.88;101003.44;5093167;28;20028;-76
2021/11/18 08:08:48;;;;;;;11.13;2.03;;;;;;;9.46;73.06;100995.84;5068309;28;20024;-76
2021/11/18 08:11:19;;;;;;;9.82;1.85;;;;;;;9.45;72.90;101003.19;5054994;28;20119;-77
2021/11/18 08:13:45;;;;;;;9.25;2.58;;;;;;;9.46;73.04;100990.41;5071545;28;20028;-76
2021/11/18 08:16:10;;;;;;;11.25;1.75;;;;;;;9.47;73.11;100986.63;5054770;28;20048;-77
2021/11/18 08:18:36;;;;;;;7.43;1.92;;;;;;;9.50;73.50;100999.72;5059031;28;20036;-77
2021/11/18 08:21:01;;;;;;;10.15;1.60;;;;;;;9.51;73.35;100999.44;5074998;28;20023;-76
2021/11/18 08:23:31;;;;;;;12.65;2.03;;;;;;;9.54;73.64;101000.81;5088388;28;20441;-77
2021/11/18 08:25:57;;;;;;;13.73;2.38;;;;;;;9.55;73.64;100997.03;5091763;28;20034;-77
2021/11/18 08:28:22;;;;;;;12.43;2.13;;;;;;;9.58;73.74;100993.78;5090527;28;20024;-77
2021/11/18 08:30:47;;;;;;;17.55;3.53;;;;;;;9.61;73.87;101000.59;5091822;28;20377;-77
2021/11/18 08:33:13;;;;;;;11.02;2.35;;;;;;;9.64;73.86;100992.72;5091907;28;20032;-76
2021/11/18 08:35:38;;;;;;;14.85;3.67;;;;;;;9.68;74.19;100991.09;5072676;28;20024;-77
2021/11/18 08:38:08;;;;;;;16.13;2.55;;;;;;;9.71;74.31;100981.59;5072583;28;20178;-77
2021/11/18 08:40:34;;;;;;;16.48;2.83;;;;;;;9.74;74.15;100979.19;5091477;28;20179;-77
2021/11/18 08:43:00;;;;;;;12.68;2.28;;;;;;;9.76;74.60;100982.44;5074635;28;20114;-77
2021/11/18 08:45:26;;;;;;;8.90;1.80;;;;;;;9.78;74.58;100982.19;5091702;28;20028;-77
2021/11/18 08:47:51;;;;;;;14.15;3.17;;;;;;;9.81;74.83;100976.22;5092859;28;20085;-77
2021/11/18 08:50:18;;;;;;;9.48;2.17;;;;;;;9.82;74.91;100975.16;5073707;28;20024;-77
2021/11/18 08:52:44;;;;;;;20.92;3.33;;;;;;;9.82;75.24;100980.59;5070792;28;20484;-77
2021/11/18 08:55:12;;;;;;;15.68;2.90;;;;;;;9.84;75.36;100985.75;5087254;28;20043;-77
2021/11/18 08:57:38;;;;;;;21.95;3.47;;;;;;;9.85;75.74;100987.38;5092595;28;20039;-77
2021/11/18 09:00:10;;;;;;;18.70;3.17;;;;;;;9.87;76.17;100993.38;5077376;28;20032;-77
2021/11/18 09:02:36;;;;;;;16.33;2.67;;;;;;;9.89;76.25;100992.03;5054239;28;20498;-77
2021/11/18 09:05:01;;;;;;;17.45;3.08;;;;;;;9.92;76.49;101007.84;5085221;28;20195;-77
2021/11/18 09:07:26;;;;;;;15.13;3.03;;;;;;;9.94;76.56;101002.16;5092220;28;20027;-77
2021/11/18 09:09:52;;;;;;;17.27;2.97;;;;;;;9.91;76.68;100992.59;5061534;28;20032;-77
2021/11/18 09:12:17;;;;;;;24.00;3.67;;;;;;;9.84;76.95;100983.84;5070922;28;20031;-77
2021/11/18 09:14:43;;;;;;;17.95;2.25;;;;;;;9.80;77.13;100985.47;5084626;28;20076;-77
2021/11/18 09:17:10;;;;;;;12.43;2.50;;;;;;;9.75;77.44;100978.09;5095242;28;20024;-77
2021/11/18 09:19:36;;;;;;;16.48;2.85;;;;;;;9.73;77.72;100979.44;5094400;28;20036;-77
2021/11/18 09:22:03;;;;;;;16.73;2.20;;;;;;;9.71;77.78;100966.09;5095246;28;20024;-77
2021/11/18 09:24:44;;;;;;;13.65;2.63;;;;;;;9.69;77.76;100973.69;5093798;28;20032;-77
2021/11/18 09:27:16;;;;;;;13.10;2.67;;;;;;;9.68;78.09;100972.03;5094186;28;20034;-77
2021/11/18 09:29:43;;;;;;;15.30;2.70;;;;;;;9.65;78.41;100986.19;5074784;28;20036;-78
2021/11/18 09:32:08;;;;;;;14.13;3.17;;;;;;;9.65;78.57;101007.97;5074843;28;20032;-78
2021/11/18 09:34:34;;;;;;;15.02;3.25;;;;;;;9.65;78.94;100998.97;5075774;28;20021;-76
2021/11/18 09:37:00;;;;;;;16.63;3.80;;;;;;;9.67;79.06;100981.31;5074643;28;20031;-77
2021/11/18 09:39:26;;;;;;;15.30;2.63;;;;;;;9.69;79.14;100973.69;5081132;28;20019;-78
2021/11/18 09:42:07;;;;;;;15.75;3.15;;;;;;;9.70;79.45;100969.06;5096016;28;20380;-77
2021/11/18 09:44:44;;;;;;;17.13;2.97;;;;;;;9.70;79.34;100948.09;5093492;28;20023;-77
2021/11/18 09:47:23;;;;;;;17.77;2.78;;;;;;;9.69;79.75;100927.41;5094062;28;20074;-77
2021/11/18 09:50:10;;;;;;;16.30;4.70;;;;;;;9.69;80.25;100943.75;5091496;28;20027;-77
2021/11/18 09:52:48;;;;;;;17.08;2.15;;;;;;;9.70;80.32;100945.38;5095961;28;20060;-77
2021/11/18 09:55:17;;;;;;;14.88;3.13;;;;;;;9.72;80.64;100940.50;5093741;28;20032;-78
2021/11/18 09:58:20;;;;;;;16.67;3.90;;;;;;;9.73;80.86;100931.22;5094748;28;20020;-78
2021/11/18 10:01:23;;;;;;;13.43;2.95;;;;;;;9.77;81.04;100926.91;5077939;28;20024;-78
2021/11/18 10:03:54;;;;;;;19.70;3.45;;;;;;;9.82;81.16;100930.72;5075304;28;20032;-78
2021/11/18 10:06:25;;;;;;;20.52;3.45;;;;;;;9.84;81.40;100928.56;5074268;28;20470;-78
2021/11/18 10:09:21;;;;;;;18.47;3.70;;;;;;;9.81;81.81;100931.81;5075575;28;20025;-78
2021/11/18 10:12:01;;;;;;;21.00;4.10;;;;;;;9.78;82.20;100944.88;5085941;28;20044;-78
2021/11/18 10:14:40;;;;;;;17.33;3.50;;;;;;;9.74;82.47;100932.91;5088761;28;20037;-78
2021/11/18 10:17:25;;;;;;;17.42;4.05;;;;;;;9.72;82.68;100929.59;5068896;28;20028;-78
2021/11/18 10:20:04;;;;;;;22.35;3.15;;;;;;;9.71;82.99;100921.69;5085792;28;20033;-78
2021/11/18 10:22:31;;;;;;;23.15;3.90;;;;;;;9.67;83.14;100921.41;5075149;28;20403;-78
2021/11/18 10:24:57;;;;;;;20.00;3.83;;;;;;;9.62;83.35;100929.53;5082459;28;20039;-78
2021/11/18 10:27:30;;;;;;;19.98;3.22;;;;;;;9.59;83.61;100924.63;5077388;28;20377;-78
2021/11/18 10:30:10;;;;;;;22.08;4.55;;;;;;;9.56;83.98;100922.44;5094195;28;20085;-78
2021/11/18 10:33:02;;;;;;;29.48;3.90;;;;;;;9.53;84.30;100915.63;5094076;28;20092;-78
2021/11/18 10:35:45;;;;;;;31.47;4.07;;;;;;;9.52;84.49;100924.03;5090062;28;20067;-78
2021/11/18 10:38:33;;;;;;;34.65;5.53;;;;;;;9.52;84.89;100924.03;5095160;28;20031;-78
2021/11/18 10:41:06;;;;;;;22.05;4.18;;;;;;;9.50;84.94;100926.22;5039069;28;20102;-78
2021/11/18 10:43:36;;;;;;;17.60;3.30;;;;;;;9.51;85.21;100909.63;5074862;28;20095;-78
2021/11/18 10:46:46;;;;;;;24.40;4.28;;;;;;;9.50;85.23;100913.44;5088110;28;20465;-78
2021/11/18 10:49:14;;;;;;;25.27;4.03;;;;;;;9.49;85.44;100898.19;5042616;28;20602;-78
2021/11/18 10:51:55;;;;;;;30.98;4.70;;;;;;;9.49;85.92;100889.19;5093731;28;20035;-78
2021/11/18 10:54:20;;;;;;;19.25;3.80;;;;;;;9.50;86.02;100893.56;5092634;28;20404;-79
2021/11/18 10:56:58;;;;;;;20.92;4.57;;;;;;;9.51;86.24;100884.31;5094648;28;20020;-78
2021/11/18 10:59:41;;;;;;;21.42;3.72;;;;;;;9.51;86.40;100878.88;5092494;28;20076;-78
2021/11/18 11:02:15;;;;;;;26.50;5.38;;;;;;;9.52;86.58;100870.44;5093454;28;20472;-78
2021/11/18 11:04:42;;;;;;;20.80;3.80;;;;;;;9.53;86.87;100871.25;5092284;28;20032;-78
2021/11/18 11:07:08;;;;;;;26.08;5.38;;;;;;;9.54;86.96;100856.56;5093383;28;20016;-78
2021/11/18 11:09:40;;;;;;;36.63;4.80;;;;;;;9.55;86.89;100856.31;5088755;28;20081;-78
2021/11/18 11:12:23;;;;;;;25.33;4.97;;;;;;;9.53;86.94;100850.31;5057145;28;20532;-78
2021/11/18 11:15:01;;;;;;;19.63;4.43;;;;;;;9.54;87.10;100870.16;5072581;28;20044;-78
2021/11/18 11:17:42;;;;;;;25.58;4.75;;;;;;;9.53;87.13;100853.03;5074273;28;20103;-78
2021/11/18 11:20:33;;;;;;;23.15;4.65;;;;;;;9.54;87.27;100857.38;5083033;28;20054;-78
2021/11/18 11:23:26;;;;;;;20.48;4.47;;;;;;;9.54;87.31;100856.56;5094282;28;20028;-78
2021/11/18 11:25:51;;;;;;;20.00;3.72;;;;;;;9.54;87.43;100853.84;5092982;28;20077;-78
2021/11/18 11:28:20;;;;;;;20.10;4.00;;;;;;;9.52;87.56;100843.22;5093360;28;20704;-78
2021/11/18 11:31:06;;;;;;;24.65;4.72;;;;;;;9.52;87.71;100851.41;5077584;28;20036;-78